sensor_id;sensor_type;location;lat;lon;timestamp;P1;durP1;ratioP1;P2;durP2;ratioP2
3849;SDS011;1940;51.052;13.678;2024-03-23T00:53:11;17.83;;;8.53;;
3849;SDS011;1940;51.052;13.678;2024-03-23T00:55:38;14.07;;;6.83;;
3849;SDS011;1940;51.052;13.678;2024-03-23T00:58:03;13.53;;;6.90;;
3849;SDS011;1940;51.052;13.678;2024-03-23T01:00:29;10.87;;;7.00;;
3849;SDS011;1940;51.052;13.678;2024-03-23T01:02:54;17.70;;;7.53;;
3849;SDS011;1940;51.052;13.678;2024-03-23T01:05:20;14.03;;;8.03;;
3849;SDS011;1940;51.052;13.678;2024-03-23T01:07:45;12.57;;;7.87;;
3849;SDS011;1940;51.052;13.678;2024-03-23T01:10:11;21.53;;;9.07;;
3849;SDS011;1940;51.052;13.678;2024-03-23T01:12:36;14.50;;;9.00;;
3849;SDS011;1940;51.052;13.678;2024-03-23T01:15:02;25.83;;;10.30;;
3849;SDS011;1940;51.052;13.678;2024-03-23T01:17:27;22.50;;;11.03;;
3849;SDS011;1940;51.052;13.678;2024-03-23T01:19:53;17.83;;;9.80;;
3849;SDS011;1940;51.052;13.678;2024-03-23T01:22:18;20.63;;;10.50;;
3849;SDS011;1940;51.052;13.678;2024-03-23T01:24:44;17.77;;;10.40;;
3849;SDS011;1940;51.052;13.678;2024-03-23T01:27:09;20.37;;;10.43;;
3849;SDS011;1940;51.052;13.678;2024-03-23T01:29:35;21.30;;;10.80;;
3849;SDS011;1940;51.052;13.678;2024-03-23T01:32:00;23.67;;;11.27;;
3849;SDS011;1940;51.052;13.678;2024-03-23T01:34:26;23.93;;;12.20;;
3849;SDS011;1940;51.052;13.678;2024-03-23T01:36:52;21.67;;;12.73;;
3849;SDS011;1940;51.052;13.678;2024-03-23T01:39:18;25.57;;;12.83;;
3849;SDS011;1940;51.052;13.678;2024-03-23T01:41:43;20.73;;;12.20;;
3849;SDS011;1940;51.052;13.678;2024-03-23T01:44:09;26.60;;;13.97;;
3849;SDS011;1940;51.052;13.678;2024-03-23T01:46:35;29.87;;;14.27;;
3849;SDS011;1940;51.052;13.678;2024-03-23T01:49:02;28.40;;;14.53;;
3849;SDS011;1940;51.052;13.678;2024-03-23T01:51:29;29.87;;;14.20;;
3849;SDS011;1940;51.052;13.678;2024-03-23T01:53:55;27.60;;;13.90;;
3849;SDS011;1940;51.052;13.678;2024-03-23T01:56:22;32.70;;;15.60;;
3849;SDS011;1940;51.052;13.678;2024-03-23T01:58:47;36.80;;;14.70;;
3849;SDS011;1940;51.052;13.678;2024-03-23T02:01:13;34.07;;;15.73;;
3849;SDS011;1940;51.052;13.678;2024-03-23T02:03:38;36.93;;;15.60;;
3849;SDS011;1940;51.052;13.678;2024-03-23T02:06:04;32.90;;;16.20;;
3849;SDS011;1940;51.052;13.678;2024-03-23T02:08:32;32.57;;;16.50;;
3849;SDS011;1940;51.052;13.678;2024-03-23T02:10:58;35.80;;;17.47;;
3849;SDS011;1940;51.052;13.678;2024-03-23T02:13:23;34.97;;;17.20;;
3849;SDS011;1940;51.052;13.678;2024-03-23T02:15:49;30.47;;;15.83;;
3849;SDS011;1940;51.052;13.678;2024-03-23T02:18:15;33.23;;;15.00;;
3849;SDS011;1940;51.052;13.678;2024-03-23T02:20:40;31.20;;;15.40;;
3849;SDS011;1940;51.052;13.678;2024-03-23T02:23:06;33.20;;;17.00;;
3849;SDS011;1940;51.052;13.678;2024-03-23T02:25:37;37.90;;;16.40;;
3849;SDS011;1940;51.052;13.678;2024-03-23T02:28:03;25.87;;;14.63;;
3849;SDS011;1940;51.052;13.678;2024-03-23T02:30:29;31.67;;;16.10;;
3849;SDS011;1940;51.052;13.678;2024-03-23T02:32:55;29.70;;;16.10;;
3849;SDS011;1940;51.052;13.678;2024-03-23T02:35:21;31.70;;;15.97;;
3849;SDS011;1940;51.052;13.678;2024-03-23T02:37:46;27.40;;;15.03;;
3849;SDS011;1940;51.052;13.678;2024-03-23T02:40:15;29.20;;;14.67;;
3849;SDS011;1940;51.052;13.678;2024-03-23T02:42:41;28.10;;;15.73;;
3849;SDS011;1940;51.052;13.678;2024-03-23T02:45:07;31.40;;;15.07;;
3849;SDS011;1940;51.052;13.678;2024-03-23T02:47:32;30.13;;;15.90;;
3849;SDS011;1940;51.052;13.678;2024-03-23T02:49:58;32.80;;;16.60;;
3849;SDS011;1940;51.052;13.678;2024-03-23T02:52:24;28.43;;;16.17;;
3849;SDS011;1940;51.052;13.678;2024-03-23T02:54:49;28.27;;;15.33;;
3849;SDS011;1940;51.052;13.678;2024-03-23T02:57:15;29.10;;;15.80;;
3849;SDS011;1940;51.052;13.678;2024-03-23T02:59:40;28.23;;;15.97;;
3849;SDS011;1940;51.052;13.678;2024-03-23T03:02:06;28.30;;;14.50;;
3849;SDS011;1940;51.052;13.678;2024-03-23T03:04:31;30.97;;;15.90;;
3849;SDS011;1940;51.052;13.678;2024-03-23T03:06:57;32.80;;;16.30;;
3849;SDS011;1940;51.052;13.678;2024-03-23T03:09:22;32.57;;;16.70;;
3849;SDS011;1940;51.052;13.678;2024-03-23T03:11:48;28.47;;;15.10;;
3849;SDS011;1940;51.052;13.678;2024-03-23T03:14:13;34.30;;;15.73;;
3849;SDS011;1940;51.052;13.678;2024-03-23T03:16:39;30.13;;;15.90;;
3849;SDS011;1940;51.052;13.678;2024-03-23T03:19:04;37.73;;;17.60;;
3849;SDS011;1940;51.052;13.678;2024-03-23T03:21:31;34.13;;;15.60;;
3849;SDS011;1940;51.052;13.678;2024-03-23T03:23:57;30.47;;;15.80;;
3849;SDS011;1940;51.052;13.678;2024-03-23T03:26:23;28.00;;;15.50;;
3849;SDS011;1940;51.052;13.678;2024-03-23T03:28:49;29.70;;;15.80;;
3849;SDS011;1940;51.052;13.678;2024-03-23T03:31:15;30.73;;;15.37;;
3849;SDS011;1940;51.052;13.678;2024-03-23T03:33:41;32.43;;;16.00;;
3849;SDS011;1940;51.052;13.678;2024-03-23T03:36:07;32.50;;;16.30;;
3849;SDS011;1940;51.052;13.678;2024-03-23T03:38:32;28.30;;;15.40;;
3849;SDS011;1940;51.052;13.678;2024-03-23T03:41:00;33.77;;;16.30;;
3849;SDS011;1940;51.052;13.678;2024-03-23T03:43:25;32.33;;;16.03;;
3849;SDS011;1940;51.052;13.678;2024-03-23T03:45:52;31.20;;;15.73;;
3849;SDS011;1940;51.052;13.678;2024-03-23T03:48:17;31.60;;;16.57;;
3849;SDS011;1940;51.052;13.678;2024-03-23T03:50:43;29.53;;;15.30;;
3849;SDS011;1940;51.052;13.678;2024-03-23T03:53:08;32.27;;;16.60;;
3849;SDS011;1940;51.052;13.678;2024-03-23T03:55:34;34.60;;;17.00;;
3849;SDS011;1940;51.052;13.678;2024-03-23T03:57:59;34.70;;;17.23;;
3849;SDS011;1940;51.052;13.678;2024-03-23T04:00:25;30.37;;;16.10;;
3849;SDS011;1940;51.052;13.678;2024-03-23T04:02:50;36.50;;;17.20;;
3849;SDS011;1940;51.052;13.678;2024-03-23T04:05:16;34.20;;;16.47;;
3849;SDS011;1940;51.052;13.678;2024-03-23T04:07:42;35.80;;;16.30;;
3849;SDS011;1940;51.052;13.678;2024-03-23T04:10:07;39.20;;;18.87;;
3849;SDS011;1940;51.052;13.678;2024-03-23T04:12:33;34.53;;;18.13;;
3849;SDS011;1940;51.052;13.678;2024-03-23T04:14:59;36.47;;;18.90;;
3849;SDS011;1940;51.052;13.678;2024-03-23T04:17:26;32.23;;;16.60;;
3849;SDS011;1940;51.052;13.678;2024-03-23T04:19:56;33.50;;;17.90;;
3849;SDS011;1940;51.052;13.678;2024-03-23T04:22:23;34.23;;;18.00;;
3849;SDS011;1940;51.052;13.678;2024-03-23T04:24:54;36.80;;;18.73;;
3849;SDS011;1940;51.052;13.678;2024-03-23T04:27:20;35.47;;;18.50;;
3849;SDS011;1940;51.052;13.678;2024-03-23T04:29:52;42.27;;;18.53;;
3849;SDS011;1940;51.052;13.678;2024-03-23T04:32:18;35.90;;;18.17;;
3849;SDS011;1940;51.052;13.678;2024-03-23T04:34:44;42.73;;;18.97;;
3849;SDS011;1940;51.052;13.678;2024-03-23T04:37:10;40.93;;;19.30;;
3849;SDS011;1940;51.052;13.678;2024-03-23T04:39:36;37.93;;;19.00;;
3849;SDS011;1940;51.052;13.678;2024-03-23T04:42:02;38.23;;;18.67;;
3849;SDS011;1940;51.052;13.678;2024-03-23T04:44:28;42.17;;;21.00;;
3849;SDS011;1940;51.052;13.678;2024-03-23T04:46:54;39.63;;;20.73;;
3849;SDS011;1940;51.052;13.678;2024-03-23T04:49:20;37.80;;;18.60;;
3849;SDS011;1940;51.052;13.678;2024-03-23T04:51:45;43.87;;;20.40;;
3849;SDS011;1940;51.052;13.678;2024-03-23T04:54:14;41.97;;;21.80;;
3849;SDS011;1940;51.052;13.678;2024-03-23T04:56:40;38.93;;;19.10;;
3849;SDS011;1940;51.052;13.678;2024-03-23T04:59:06;39.30;;;20.03;;
3849;SDS011;1940;51.052;13.678;2024-03-23T05:01:31;39.90;;;20.13;;
3849;SDS011;1940;51.052;13.678;2024-03-23T05:03:57;40.60;;;20.17;;
3849;SDS011;1940;51.052;13.678;2024-03-23T05:06:23;40.43;;;20.23;;
3849;SDS011;1940;51.052;13.678;2024-03-23T05:08:49;36.70;;;20.00;;
3849;SDS011;1940;51.052;13.678;2024-03-23T05:11:15;39.50;;;20.63;;
3849;SDS011;1940;51.052;13.678;2024-03-23T05:13:41;42.20;;;21.07;;
3849;SDS011;1940;51.052;13.678;2024-03-23T05:16:07;39.13;;;20.03;;
3849;SDS011;1940;51.052;13.678;2024-03-23T05:18:33;35.47;;;18.93;;
3849;SDS011;1940;51.052;13.678;2024-03-23T05:20:59;41.90;;;21.17;;
3849;SDS011;1940;51.052;13.678;2024-03-23T05:23:25;40.50;;;19.90;;
3849;SDS011;1940;51.052;13.678;2024-03-23T05:25:51;42.47;;;20.17;;
3849;SDS011;1940;51.052;13.678;2024-03-23T05:28:17;44.10;;;21.83;;
3849;SDS011;1940;51.052;13.678;2024-03-23T05:30:42;41.77;;;19.37;;
3849;SDS011;1940;51.052;13.678;2024-03-23T05:33:08;38.67;;;18.93;;
3849;SDS011;1940;51.052;13.678;2024-03-23T05:35:34;40.63;;;19.97;;
3849;SDS011;1940;51.052;13.678;2024-03-23T05:37:59;35.57;;;18.23;;
3849;SDS011;1940;51.052;13.678;2024-03-23T05:40:25;42.97;;;19.70;;
3849;SDS011;1940;51.052;13.678;2024-03-23T05:42:52;33.73;;;18.87;;
3849;SDS011;1940;51.052;13.678;2024-03-23T05:45:18;36.20;;;18.53;;
3849;SDS011;1940;51.052;13.678;2024-03-23T05:47:44;35.10;;;18.67;;
3849;SDS011;1940;51.052;13.678;2024-03-23T05:50:09;36.47;;;19.30;;
3849;SDS011;1940;51.052;13.678;2024-03-23T05:52:37;41.47;;;20.23;;
3849;SDS011;1940;51.052;13.678;2024-03-23T05:55:08;35.77;;;17.80;;
3849;SDS011;1940;51.052;13.678;2024-03-23T05:57:34;35.60;;;17.90;;
3849;SDS011;1940;51.052;13.678;2024-03-23T05:59:59;35.17;;;18.53;;
3849;SDS011;1940;51.052;13.678;2024-03-23T06:02:25;36.10;;;17.93;;
3849;SDS011;1940;51.052;13.678;2024-03-23T06:04:50;38.70;;;19.83;;
3849;SDS011;1940;51.052;13.678;2024-03-23T06:07:16;35.07;;;19.23;;
3849;SDS011;1940;51.052;13.678;2024-03-23T06:09:41;35.47;;;18.90;;
3849;SDS011;1940;51.052;13.678;2024-03-23T06:12:07;32.03;;;18.20;;
3849;SDS011;1940;51.052;13.678;2024-03-23T06:14:32;37.20;;;17.60;;
3849;SDS011;1940;51.052;13.678;2024-03-23T06:16:59;34.10;;;18.17;;
3849;SDS011;1940;51.052;13.678;2024-03-23T06:19:25;35.00;;;18.10;;
3849;SDS011;1940;51.052;13.678;2024-03-23T06:21:54;38.53;;;19.30;;
3849;SDS011;1940;51.052;13.678;2024-03-23T06:24:21;35.17;;;18.50;;
3849;SDS011;1940;51.052;13.678;2024-03-23T06:26:47;37.80;;;19.20;;
3849;SDS011;1940;51.052;13.678;2024-03-23T06:29:12;34.53;;;18.37;;
3849;SDS011;1940;51.052;13.678;2024-03-23T06:31:38;37.23;;;18.50;;
3849;SDS011;1940;51.052;13.678;2024-03-23T06:34:04;35.30;;;18.40;;
3849;SDS011;1940;51.052;13.678;2024-03-23T06:36:29;39.47;;;19.57;;
3849;SDS011;1940;51.052;13.678;2024-03-23T06:38:55;36.50;;;18.57;;
3849;SDS011;1940;51.052;13.678;2024-03-23T06:41:22;35.27;;;18.37;;
3849;SDS011;1940;51.052;13.678;2024-03-23T06:43:48;39.07;;;19.77;;
3849;SDS011;1940;51.052;13.678;2024-03-23T06:46:13;34.17;;;17.63;;
3849;SDS011;1940;51.052;13.678;2024-03-23T06:48:39;42.00;;;19.30;;
3849;SDS011;1940;51.052;13.678;2024-03-23T06:51:04;36.73;;;18.37;;
3849;SDS011;1940;51.052;13.678;2024-03-23T06:53:31;37.47;;;18.50;;
3849;SDS011;1940;51.052;13.678;2024-03-23T06:55:57;39.73;;;20.53;;
3849;SDS011;1940;51.052;13.678;2024-03-23T06:58:23;43.77;;;19.97;;
3849;SDS011;1940;51.052;13.678;2024-03-23T07:00:49;39.73;;;19.00;;
3849;SDS011;1940;51.052;13.678;2024-03-23T07:03:16;40.40;;;19.47;;
3849;SDS011;1940;51.052;13.678;2024-03-23T07:05:42;35.20;;;17.93;;
3849;SDS011;1940;51.052;13.678;2024-03-23T07:08:07;32.03;;;17.47;;
3849;SDS011;1940;51.052;13.678;2024-03-23T07:10:33;39.17;;;18.10;;
3849;SDS011;1940;51.052;13.678;2024-03-23T07:12:59;35.03;;;18.37;;
3849;SDS011;1940;51.052;13.678;2024-03-23T07:15:25;39.27;;;19.17;;
3849;SDS011;1940;51.052;13.678;2024-03-23T07:17:50;41.80;;;20.03;;
3849;SDS011;1940;51.052;13.678;2024-03-23T07:20:16;41.83;;;20.00;;
3849;SDS011;1940;51.052;13.678;2024-03-23T07:22:41;47.47;;;19.93;;
3849;SDS011;1940;51.052;13.678;2024-03-23T07:25:06;39.17;;;19.03;;
3849;SDS011;1940;51.052;13.678;2024-03-23T07:27:32;39.83;;;20.10;;
3849;SDS011;1940;51.052;13.678;2024-03-23T07:29:58;39.70;;;18.77;;
3849;SDS011;1940;51.052;13.678;2024-03-23T07:32:25;44.43;;;19.50;;
3849;SDS011;1940;51.052;13.678;2024-03-23T07:34:51;40.80;;;19.80;;
3849;SDS011;1940;51.052;13.678;2024-03-23T07:37:18;41.20;;;20.03;;
3849;SDS011;1940;51.052;13.678;2024-03-23T07:39:43;37.40;;;18.40;;
3849;SDS011;1940;51.052;13.678;2024-03-23T07:42:09;40.70;;;20.17;;
3849;SDS011;1940;51.052;13.678;2024-03-23T07:44:34;40.10;;;19.63;;
3849;SDS011;1940;51.052;13.678;2024-03-23T07:47:03;45.43;;;19.40;;
3849;SDS011;1940;51.052;13.678;2024-03-23T07:49:28;39.27;;;19.73;;
3849;SDS011;1940;51.052;13.678;2024-03-23T07:51:54;41.20;;;18.70;;
3849;SDS011;1940;51.052;13.678;2024-03-23T07:54:20;41.70;;;19.27;;
3849;SDS011;1940;51.052;13.678;2024-03-23T07:56:45;35.87;;;18.23;;
3849;SDS011;1940;51.052;13.678;2024-03-23T07:59:11;36.03;;;18.07;;
3849;SDS011;1940;51.052;13.678;2024-03-23T08:01:36;33.47;;;18.13;;
3849;SDS011;1940;51.052;13.678;2024-03-23T08:04:02;31.80;;;16.50;;
3849;SDS011;1940;51.052;13.678;2024-03-23T08:06:27;32.40;;;16.67;;
3849;SDS011;1940;51.052;13.678;2024-03-23T08:08:54;31.47;;;16.80;;
3849;SDS011;1940;51.052;13.678;2024-03-23T08:11:27;35.13;;;18.57;;
3849;SDS011;1940;51.052;13.678;2024-03-23T08:13:56;29.17;;;16.43;;
3849;SDS011;1940;51.052;13.678;2024-03-23T08:16:22;31.30;;;15.27;;
3849;SDS011;1940;51.052;13.678;2024-03-23T08:18:48;28.53;;;15.30;;
3849;SDS011;1940;51.052;13.678;2024-03-23T08:21:16;34.10;;;16.27;;
3849;SDS011;1940;51.052;13.678;2024-03-23T08:23:43;34.00;;;17.30;;
3849;SDS011;1940;51.052;13.678;2024-03-23T08:26:09;30.13;;;16.47;;
3849;SDS011;1940;51.052;13.678;2024-03-23T08:28:35;31.00;;;16.50;;
3849;SDS011;1940;51.052;13.678;2024-03-23T08:31:05;33.60;;;17.10;;
3849;SDS011;1940;51.052;13.678;2024-03-23T08:33:32;29.43;;;14.90;;
3849;SDS011;1940;51.052;13.678;2024-03-23T08:36:01;28.90;;;14.50;;
3849;SDS011;1940;51.052;13.678;2024-03-23T08:38:28;25.97;;;14.73;;
3849;SDS011;1940;51.052;13.678;2024-03-23T08:40:57;29.27;;;15.10;;
3849;SDS011;1940;51.052;13.678;2024-03-23T08:43:26;31.07;;;16.10;;
3849;SDS011;1940;51.052;13.678;2024-03-23T08:45:52;27.73;;;15.00;;
3849;SDS011;1940;51.052;13.678;2024-03-23T08:48:18;35.67;;;17.80;;
3849;SDS011;1940;51.052;13.678;2024-03-23T08:50:58;32.03;;;16.70;;
3849;SDS011;1940;51.052;13.678;2024-03-23T08:53:28;32.27;;;17.60;;
3849;SDS011;1940;51.052;13.678;2024-03-23T08:55:55;31.53;;;16.23;;
3849;SDS011;1940;51.052;13.678;2024-03-23T08:58:21;32.47;;;17.37;;
3849;SDS011;1940;51.052;13.678;2024-03-23T09:00:51;33.10;;;16.90;;
3849;SDS011;1940;51.052;13.678;2024-03-23T09:03:17;32.13;;;16.40;;
3849;SDS011;1940;51.052;13.678;2024-03-23T09:05:42;33.73;;;17.47;;
3849;SDS011;1940;51.052;13.678;2024-03-23T09:08:08;34.40;;;17.90;;
3849;SDS011;1940;51.052;13.678;2024-03-23T09:10:40;31.00;;;17.37;;
3849;SDS011;1940;51.052;13.678;2024-03-23T09:13:06;33.43;;;17.37;;
3849;SDS011;1940;51.052;13.678;2024-03-23T09:15:35;31.07;;;16.70;;
3849;SDS011;1940;51.052;13.678;2024-03-23T09:18:02;30.40;;;16.30;;
3849;SDS011;1940;51.052;13.678;2024-03-23T09:20:28;18.93;;;10.93;;
3849;SDS011;1940;51.052;13.678;2024-03-23T09:22:54;16.10;;;9.70;;
3849;SDS011;1940;51.052;13.678;2024-03-23T09:25:19;16.97;;;9.77;;
3849;SDS011;1940;51.052;13.678;2024-03-23T09:27:48;17.50;;;10.53;;
3849;SDS011;1940;51.052;13.678;2024-03-23T09:30:14;18.47;;;11.30;;
3849;SDS011;1940;51.052;13.678;2024-03-23T09:32:41;19.20;;;11.30;;
3849;SDS011;1940;51.052;13.678;2024-03-23T09:35:08;17.13;;;10.60;;
3849;SDS011;1940;51.052;13.678;2024-03-23T09:37:33;19.07;;;11.40;;
3849;SDS011;1940;51.052;13.678;2024-03-23T09:39:59;20.70;;;11.00;;
3849;SDS011;1940;51.052;13.678;2024-03-23T09:42:24;19.37;;;11.17;;
3849;SDS011;1940;51.052;13.678;2024-03-23T09:44:50;20.43;;;11.80;;
3849;SDS011;1940;51.052;13.678;2024-03-23T09:47:16;23.40;;;11.60;;
3849;SDS011;1940;51.052;13.678;2024-03-23T09:49:42;23.47;;;12.07;;
3849;SDS011;1940;51.052;13.678;2024-03-23T09:52:08;40.17;;;11.17;;
3849;SDS011;1940;51.052;13.678;2024-03-23T09:54:33;17.77;;;9.03;;
3849;SDS011;1940;51.052;13.678;2024-03-23T09:56:59;11.57;;;4.67;;
3849;SDS011;1940;51.052;13.678;2024-03-23T09:59:24;13.10;;;4.67;;
3849;SDS011;1940;51.052;13.678;2024-03-23T10:01:51;12.80;;;3.13;;
3849;SDS011;1940;51.052;13.678;2024-03-23T10:07:10;3.20;;;1.60;;
3849;SDS011;1940;51.052;13.678;2024-03-23T10:09:36;1.33;;;1.10;;
3849;SDS011;1940;51.052;13.678;2024-03-23T10:12:11;1.20;;;0.80;;
3849;SDS011;1940;51.052;13.678;2024-03-23T10:14:39;1.30;;;0.83;;
3849;SDS011;1940;51.052;13.678;2024-03-23T10:17:12;1.13;;;0.77;;
3849;SDS011;1940;51.052;13.678;2024-03-23T10:19:43;1.53;;;0.70;;
3849;SDS011;1940;51.052;13.678;2024-03-23T10:22:14;0.90;;;0.60;;
3849;SDS011;1940;51.052;13.678;2024-03-23T10:24:43;0.90;;;0.60;;
3849;SDS011;1940;51.052;13.678;2024-03-23T10:27:08;0.90;;;0.70;;
3849;SDS011;1940;51.052;13.678;2024-03-23T10:29:34;0.70;;;0.60;;
3849;SDS011;1940;51.052;13.678;2024-03-23T10:32:12;1.20;;;0.80;;
3849;SDS011;1940;51.052;13.678;2024-03-23T10:34:38;1.10;;;1.00;;
3849;SDS011;1940;51.052;13.678;2024-03-23T10:37:05;2.27;;;1.20;;
3849;SDS011;1940;51.052;13.678;2024-03-23T10:39:32;1.43;;;1.00;;
3849;SDS011;1940;51.052;13.678;2024-03-23T10:42:02;1.23;;;1.07;;
3849;SDS011;1940;51.052;13.678;2024-03-23T10:44:29;1.20;;;0.90;;
3849;SDS011;1940;51.052;13.678;2024-03-23T10:46:56;1.10;;;1.00;;
3849;SDS011;1940;51.052;13.678;2024-03-23T10:49:31;2.33;;;0.83;;
3849;SDS011;1940;51.052;13.678;2024-03-23T10:51:58;0.90;;;0.70;;
3849;SDS011;1940;51.052;13.678;2024-03-23T10:54:28;2.23;;;1.00;;
3849;SDS011;1940;51.052;13.678;2024-03-23T10:57:00;1.20;;;0.63;;
3849;SDS011;1940;51.052;13.678;2024-03-23T10:59:31;2.60;;;0.77;;
3849;SDS011;1940;51.052;13.678;2024-03-23T11:01:57;2.10;;;0.77;;
3849;SDS011;1940;51.052;13.678;2024-03-23T11:04:30;1.20;;;0.80;;
3849;SDS011;1940;51.052;13.678;2024-03-23T11:07:01;1.93;;;1.00;;
3849;SDS011;1940;51.052;13.678;2024-03-23T11:09:38;1.30;;;0.90;;
3849;SDS011;1940;51.052;13.678;2024-03-23T11:12:17;1.00;;;0.80;;
3849;SDS011;1940;51.052;13.678;2024-03-23T11:14:46;2.97;;;1.50;;
3849;SDS011;1940;51.052;13.678;2024-03-23T11:17:14;2.43;;;1.20;;
3849;SDS011;1940;51.052;13.678;2024-03-23T11:19:43;8.90;;;1.20;;
3849;SDS011;1940;51.052;13.678;2024-03-23T11:22:08;1.80;;;0.90;;
3849;SDS011;1940;51.052;13.678;2024-03-23T11:24:34;1.40;;;1.00;;
3849;SDS011;1940;51.052;13.678;2024-03-23T11:27:00;2.90;;;0.90;;
3849;SDS011;1940;51.052;13.678;2024-03-23T11:29:28;1.30;;;1.00;;
3849;SDS011;1940;51.052;13.678;2024-03-23T11:31:54;1.10;;;0.70;;
3849;SDS011;1940;51.052;13.678;2024-03-23T11:34:20;2.30;;;1.30;;
3849;SDS011;1940;51.052;13.678;2024-03-23T11:36:46;0.90;;;0.77;;
3849;SDS011;1940;51.052;13.678;2024-03-23T11:39:16;1.40;;;0.97;;
3849;SDS011;1940;51.052;13.678;2024-03-23T11:41:46;2.20;;;1.00;;
3849;SDS011;1940;51.052;13.678;2024-03-23T11:44:16;2.47;;;0.90;;
3849;SDS011;1940;51.052;13.678;2024-03-23T11:46:47;1.90;;;1.20;;
3849;SDS011;1940;51.052;13.678;2024-03-23T11:49:23;1.53;;;1.00;;
3849;SDS011;1940;51.052;13.678;2024-03-23T11:51:49;1.27;;;1.00;;
3849;SDS011;1940;51.052;13.678;2024-03-23T11:54:16;1.70;;;1.10;;
3849;SDS011;1940;51.052;13.678;2024-03-23T11:56:53;3.00;;;0.90;;
3849;SDS011;1940;51.052;13.678;2024-03-23T11:59:32;2.27;;;0.97;;
3849;SDS011;1940;51.052;13.678;2024-03-23T12:01:59;1.23;;;1.00;;
3849;SDS011;1940;51.052;13.678;2024-03-23T12:04:28;1.93;;;1.00;;
3849;SDS011;1940;51.052;13.678;2024-03-23T12:07:10;1.33;;;0.97;;
3849;SDS011;1940;51.052;13.678;2024-03-23T12:09:40;2.20;;;1.10;;
3849;SDS011;1940;51.052;13.678;2024-03-23T12:12:10;1.73;;;1.10;;
3849;SDS011;1940;51.052;13.678;2024-03-23T12:14:40;1.33;;;1.03;;
3849;SDS011;1940;51.052;13.678;2024-03-23T12:17:09;1.13;;;1.03;;
3849;SDS011;1940;51.052;13.678;2024-03-23T12:19:39;3.00;;;1.50;;
3849;SDS011;1940;51.052;13.678;2024-03-23T12:22:06;1.60;;;1.23;;
3849;SDS011;1940;51.052;13.678;2024-03-23T12:24:33;2.60;;;1.30;;
3849;SDS011;1940;51.052;13.678;2024-03-23T12:27:08;3.03;;;1.60;;
3849;SDS011;1940;51.052;13.678;2024-03-23T12:29:34;2.30;;;1.37;;
3849;SDS011;1940;51.052;13.678;2024-03-23T12:32:00;1.90;;;1.47;;
3849;SDS011;1940;51.052;13.678;2024-03-23T12:34:26;1.90;;;1.50;;
3849;SDS011;1940;51.052;13.678;2024-03-23T12:36:52;3.10;;;1.90;;
3849;SDS011;1940;51.052;13.678;2024-03-23T12:39:18;2.10;;;1.40;;
3849;SDS011;1940;51.052;13.678;2024-03-23T12:41:45;3.30;;;2.27;;
3849;SDS011;1940;51.052;13.678;2024-03-23T12:44:11;3.20;;;2.17;;
3849;SDS011;1940;51.052;13.678;2024-03-23T12:46:37;3.83;;;2.03;;
3849;SDS011;1940;51.052;13.678;2024-03-23T12:49:03;3.03;;;2.33;;
3849;SDS011;1940;51.052;13.678;2024-03-23T12:51:28;2.47;;;2.07;;
3849;SDS011;1940;51.052;13.678;2024-03-23T12:53:54;2.47;;;2.17;;
3849;SDS011;1940;51.052;13.678;2024-03-23T12:56:19;4.07;;;2.90;;
3849;SDS011;1940;51.052;13.678;2024-03-23T12:58:45;3.30;;;2.50;;
3849;SDS011;1940;51.052;13.678;2024-03-23T13:01:15;4.30;;;3.27;;
3849;SDS011;1940;51.052;13.678;2024-03-23T13:03:40;2.80;;;2.40;;
3849;SDS011;1940;51.052;13.678;2024-03-23T13:06:06;2.80;;;2.40;;
3849;SDS011;1940;51.052;13.678;2024-03-23T13:08:32;3.20;;;2.50;;
3849;SDS011;1940;51.052;13.678;2024-03-23T13:10:58;3.73;;;3.00;;
3849;SDS011;1940;51.052;13.678;2024-03-23T13:13:23;3.20;;;2.70;;
3849;SDS011;1940;51.052;13.678;2024-03-23T13:15:49;3.60;;;2.40;;
3849;SDS011;1940;51.052;13.678;2024-03-23T13:18:15;2.93;;;2.50;;
3849;SDS011;1940;51.052;13.678;2024-03-23T13:20:41;2.63;;;2.10;;
3849;SDS011;1940;51.052;13.678;2024-03-23T13:23:06;6.83;;;2.60;;
3849;SDS011;1940;51.052;13.678;2024-03-23T13:25:32;6.03;;;2.47;;
3849;SDS011;1940;51.052;13.678;2024-03-23T13:27:58;3.47;;;2.47;;
3849;SDS011;1940;51.052;13.678;2024-03-23T13:30:24;2.97;;;2.30;;
3849;SDS011;1940;51.052;13.678;2024-03-23T13:32:49;2.80;;;2.37;;
3849;SDS011;1940;51.052;13.678;2024-03-23T13:35:15;3.80;;;2.20;;
3849;SDS011;1940;51.052;13.678;2024-03-23T13:37:40;4.53;;;2.10;;
3849;SDS011;1940;51.052;13.678;2024-03-23T13:40:06;5.20;;;2.67;;
3849;SDS011;1940;51.052;13.678;2024-03-23T13:42:32;5.27;;;2.27;;
3849;SDS011;1940;51.052;13.678;2024-03-23T13:44:58;4.00;;;2.53;;
3849;SDS011;1940;51.052;13.678;2024-03-23T13:47:23;3.90;;;1.90;;
3849;SDS011;1940;51.052;13.678;2024-03-23T13:49:49;4.23;;;2.23;;
3849;SDS011;1940;51.052;13.678;2024-03-23T13:52:15;7.27;;;2.23;;
3849;SDS011;1940;51.052;13.678;2024-03-23T13:54:41;11.30;;;2.40;;
3849;SDS011;1940;51.052;13.678;2024-03-23T13:57:11;4.30;;;1.80;;
3849;SDS011;1940;51.052;13.678;2024-03-23T13:59:36;4.40;;;2.17;;
3849;SDS011;1940;51.052;13.678;2024-03-23T14:02:02;5.77;;;2.07;;
3849;SDS011;1940;51.052;13.678;2024-03-23T14:04:28;3.97;;;2.03;;
3849;SDS011;1940;51.052;13.678;2024-03-23T14:06:53;2.27;;;1.33;;
3849;SDS011;1940;51.052;13.678;2024-03-23T14:09:19;4.90;;;1.70;;
3849;SDS011;1940;51.052;13.678;2024-03-23T14:11:47;2.00;;;1.60;;
3849;SDS011;1940;51.052;13.678;2024-03-23T14:14:13;8.20;;;2.17;;
3849;SDS011;1940;51.052;13.678;2024-03-23T14:16:41;2.20;;;1.80;;
3849;SDS011;1940;51.052;13.678;2024-03-23T14:19:07;7.40;;;2.10;;
3849;SDS011;1940;51.052;13.678;2024-03-23T14:21:33;5.10;;;1.87;;
3849;SDS011;1940;51.052;13.678;2024-03-23T14:24:01;7.40;;;1.93;;
3849;SDS011;1940;51.052;13.678;2024-03-23T14:26:27;6.90;;;1.77;;
3849;SDS011;1940;51.052;13.678;2024-03-23T14:28:53;4.40;;;2.00;;
3849;SDS011;1940;51.052;13.678;2024-03-23T14:31:18;5.00;;;1.80;;
3849;SDS011;1940;51.052;13.678;2024-03-23T14:33:44;5.00;;;1.80;;
3849;SDS011;1940;51.052;13.678;2024-03-23T14:36:13;3.73;;;2.07;;
3849;SDS011;1940;51.052;13.678;2024-03-23T14:38:38;4.83;;;2.10;;
3849;SDS011;1940;51.052;13.678;2024-03-23T14:41:04;8.03;;;2.20;;
3849;SDS011;1940;51.052;13.678;2024-03-23T14:43:30;5.73;;;2.33;;
3849;SDS011;1940;51.052;13.678;2024-03-23T14:46:14;5.20;;;2.10;;
3849;SDS011;1940;51.052;13.678;2024-03-23T14:48:41;5.90;;;2.10;;
3849;SDS011;1940;51.052;13.678;2024-03-23T14:51:11;2.53;;;1.77;;
3849;SDS011;1940;51.052;13.678;2024-03-23T14:53:38;6.10;;;2.30;;
3849;SDS011;1940;51.052;13.678;2024-03-23T14:56:05;4.27;;;2.20;;
3849;SDS011;1940;51.052;13.678;2024-03-23T14:58:31;5.60;;;2.70;;
3849;SDS011;1940;51.052;13.678;2024-03-23T15:01:03;6.67;;;2.57;;
3849;SDS011;1940;51.052;13.678;2024-03-23T15:03:30;5.27;;;2.37;;
3849;SDS011;1940;51.052;13.678;2024-03-23T15:05:58;4.57;;;2.00;;
3849;SDS011;1940;51.052;13.678;2024-03-23T15:08:27;10.00;;;2.97;;
3849;SDS011;1940;51.052;13.678;2024-03-23T15:10:53;5.77;;;2.60;;
3849;SDS011;1940;51.052;13.678;2024-03-23T15:13:18;4.17;;;2.37;;
3849;SDS011;1940;51.052;13.678;2024-03-23T15:15:44;3.83;;;2.23;;
3849;SDS011;1940;51.052;13.678;2024-03-23T15:18:13;2.93;;;2.10;;
3849;SDS011;1940;51.052;13.678;2024-03-23T15:20:53;5.70;;;2.53;;
3849;SDS011;1940;51.052;13.678;2024-03-23T15:23:22;2.87;;;2.13;;
3849;SDS011;1940;51.052;13.678;2024-03-23T15:25:54;5.13;;;2.30;;
3849;SDS011;1940;51.052;13.678;2024-03-23T15:28:23;3.90;;;1.93;;
3849;SDS011;1940;51.052;13.678;2024-03-23T15:30:52;4.43;;;2.10;;
3849;SDS011;1940;51.052;13.678;2024-03-23T15:33:17;4.83;;;2.23;;
3849;SDS011;1940;51.052;13.678;2024-03-23T15:35:43;4.90;;;2.10;;
3849;SDS011;1940;51.052;13.678;2024-03-23T15:38:08;8.43;;;2.40;;